Pagrindinis puslapis
METAR-TAF:

METAR-TAF

Oro uostai :

Hobbs, Naujoji Meksika, Jungtinės Amerikos Valstijos

platuma: 32-41N, ilguma: 103-13W, Aukštis: 1115 m

Dabartinis oras

Ataskaita buvo paskelbta 23 minutes, ne 03:35 UTC
Vėjas 7 kt iš Pietryčių
Temperatūra 19°C
Drėgmė 52%
Slėgis 1022 hPa
Matomumas: 16.1 km
Giedras dangus

METAR: KHOB 140335Z AUTO 13007KT 10SM CLR 19/09 A3018 RMK AO2

Laikas: 21:58 (03:58 UTC)

Prognozė

Ataskaita buvo paskelbta 4 valandos ir 38 minutes, ne 23:20 UTC
Prognozė galioja nuo 14 metu 00 UTC su 14 metu 24 UTC
Vėjas 10 kt iš Pietų/Pietryčių
Matomumas: 10 km
Mažai debesys ne aukštis 25000 ft

TAF: KHOB 132320Z 1400/1424 15010KT P6SM FEW250

Orai ataskaitas ir orų prognozės (METAR, TAF).

turimą stotys yra geltonos ir raudonos taškus žemėlapyje.

Perkelti pele per norėdami pamatyti stoties vardą.

Tada spustelėkite, norėdami matyti oro stebėjimo ir prognozės.

Norėdami pakeisti žemėlapį: spustelėkite ant žalios mygtukų su juodo kryžiaus žemyn,; žalią mygtuką su brūkšneliu, jei norite nutolinti; arba žalių rodyklių gretimoms žemėlapius.


METAR-TAF: